| time (UTC) | temp F | wind direction | speed MPH | gust MPH | rain 1hr in | rain 24hr in | rain mn in | humidity % | barometer mb |
| 20260904170127 | 73 | 236 | 3.0 | 0.0 | 0.00 | 0.00 | 0.01 | 80 | 1100.1 |
| 20260904161658 | 76 | 236 | 1.0 | 0.0 | 0.00 | 0.00 | 0.01 | 73 | 1100.1 |
| 20260904154559 | 76 | 236 | 2.0 | 0.0 | 0.00 | 0.00 | 0.01 | 77 | 1100.1 |
| 20260904153105 | 76 | 236 | 1.0 | 0.0 | 0.00 | 0.00 | 0.01 | 75 | 1100.1 |
| 20260904151518 | 75 | 236 | 2.0 | 0.0 | 0.00 | 0.00 | 0.01 | 80 | 1100.1 |
| 20260904133001 | 68 | 236 | 3.0 | 0.0 | 0.00 | 0.00 | 0.01 | 93 | 1100.1 |
| 20260904131610 | 69 | 236 | 4.0 | 0.0 | 0.00 | 0.00 | 0.01 | 93 | 1100.1 |
| 20260904130117 | 69 | 236 | 2.0 | 0.0 | 0.00 | 0.00 | 0.01 | 93 | 1100.1 |
| 20260904124518 | 69 | 236 | 1.0 | 0.0 | 0.00 | 0.00 | 0.01 | 93 | 1100.1 |
| 20260904123057 | 68 | 236 | 0.0 | 0.0 | 0.00 | 0.00 | 0.01 | 93 | 1100.1 |
| 20260904121558 | 67 | 236 | 1.0 | 0.0 | 0.00 | 0.00 | 0.01 | 93 | 1100.1 |
| 20260904120141 | 67 | 236 | 0.0 | 0.0 | 0.00 | 0.00 | 0.01 | 93 | 1100.1 |
| 20260904111632 | 65 | 236 | 0.0 | 0.0 | 0.00 | 0.00 | 0.01 | 93 | 1100.1 |
| 20260904103139 | 65 | 15 | 0.0 | 0.0 | 0.00 | 0.00 | 0.01 | 93 | 1100.1 |
| 20260904101558 | 65 | 15 | 0.0 | 0.0 | 0.00 | 0.00 | 0.01 | 93 | 1100.1 |
| 20260904100130 | 65 | 15 | 0.0 | 0.0 | 0.00 | 0.00 | 0.01 | 93 | 1100.1 |
| 20260904094631 | 65 | 15 | 0.0 | 0.0 | 0.00 | 0.00 | 0.01 | 93 | 1100.1 |
| 20260904093055 | 65 | 15 | 0.0 | 0.0 | 0.00 | 0.00 | 0.01 | 93 | 1100.1 |
| 20260904091609 | 64 | 15 | 0.0 | 0.0 | 0.00 | 0.00 | 0.01 | 92 | 1100.1 |
| 20260904090014 | 65 | 15 | 0.0 | 0.0 | 0.00 | 0.00 | 0.01 | 92 | 1100.1 |
| 20260904084513 | 65 | 15 | 1.0 | 0.0 | 0.00 | 0.00 | 0.01 | 93 | 1100.1 |
| 20260904083111 | 66 | 15 | 2.0 | 0.0 | 0.00 | 0.00 | 0.01 | 93 | 1100.1 |
| 20260904081607 | 66 | 15 | 1.0 | 0.0 | 0.00 | 0.00 | 0.01 | 92 | 1100.1 |
| 20260904080119 | 66 | 15 | 1.0 | 0.0 | 0.00 | 0.00 | 0.00 | 93 | 1100.1 |
| 20260904074619 | 66 | 15 | 0.0 | 0.0 | 0.00 | 0.00 | 0.00 | 93 | 1100.1 |
| 20260904073128 | 66 | 15 | 0.0 | 0.0 | 0.00 | 0.00 | 0.00 | 92 | 1100.1 |
| 20260904071629 | 67 | 15 | 1.0 | 0.0 | 0.00 | 0.00 | 0.00 | 92 | 1100.1 |
| 20260904070116 | 65 | 15 | 0.0 | 0.0 | 0.00 | 0.00 | 0.00 | 92 | 1100.1 |
| 20260904064616 | 66 | 15 | 0.0 | 0.0 | 0.00 | 0.00 | 0.00 | 92 | 1100.1 |
| 20260904063126 | 66 | 15 | 0.0 | 0.0 | 0.00 | 0.00 | 0.00 | 92 | 1100.1 |
| 20260904061509 | 66 | 15 | 0.0 | 0.0 | 0.00 | 0.00 | 0.00 | 92 | 1100.1 |
| 20260904060059 | 66 | 15 | 0.0 | 0.0 | 0.00 | 0.00 | 0.00 | 92 | 1100.1 |
| 20260904054603 | 66 | 15 | 0.0 | 0.0 | 0.00 | 0.00 | 0.00 | 92 | 1100.1 |
| 20260904053109 | 66 | 15 | 0.0 | 0.0 | 0.00 | 0.00 | 0.00 | 92 | 1100.1 |
| 20260904051609 | 66 | 15 | 0.0 | 0.0 | 0.00 | 0.00 | 0.00 | 92 | 1100.1 |
| 20260904050115 | 66 | 15 | 0.0 | 0.0 | 0.00 | 0.00 | 0.00 | 92 | 1100.1 |
| 20260904044631 | 67 | 15 | 0.0 | 0.0 | 0.00 | 0.00 | 0.56 | 92 | 1100.1 |
| 20260904043119 | 67 | 15 | 0.0 | 0.0 | 0.00 | 0.00 | 0.56 | 92 | 1100.1 |
| 20260904041621 | 67 | 15 | 0.0 | 0.0 | 0.00 | 0.00 | 0.56 | 92 | 1100.1 |
| 20260904040012 | 67 | 15 | 0.0 | 0.0 | 0.00 | 0.00 | 0.56 | 92 | 1100.1 |
| 20260904034559 | 67 | 15 | 0.0 | 0.0 | 0.00 | 0.00 | 0.56 | 92 | 1100.1 |
| 20260904033114 | 67 | 15 | 0.0 | 0.0 | 0.00 | 0.00 | 0.56 | 92 | 1100.1 |
| 20260904031617 | 66 | 184 | 0.0 | 0.0 | 0.00 | 0.00 | 0.56 | 92 | 1100.1 |
| 20260904030138 | 66 | 184 | 0.0 | 0.0 | 0.00 | 0.00 | 0.56 | 92 | 1100.1 |
| 20260904024558 | 66 | 184 | 0.0 | 0.0 | 0.00 | 0.00 | 0.56 | 92 | 1100.1 |
| 20260904023008 | 66 | 184 | 0.0 | 0.0 | 0.00 | 0.00 | 0.56 | 92 | 1100.1 |
| 20260904021610 | 66 | 184 | 0.0 | 0.0 | 0.00 | 0.00 | 0.56 | 92 | 1100.1 |
| 20260904020117 | 66 | 184 | 0.0 | 0.0 | 0.00 | 0.00 | 0.56 | 91 | 1100.1 |
| 20260904014622 | 67 | 184 | 0.0 | 0.0 | 0.00 | 0.00 | 0.56 | 91 | 1100.1 |
| 20260904013122 | 67 | 184 | 0.0 | 0.0 | 0.00 | 0.00 | 0.56 | 91 | 1100.1 |
| 20260904011615 | 67 | 184 | 0.0 | 0.0 | 0.00 | 0.00 | 0.56 | 91 | 1100.1 |
| 20260904010113 | 67 | 184 | 0.0 | 0.0 | 0.00 | 0.00 | 0.56 | 91 | 1100.1 |
| 20260904004501 | 68 | 184 | 0.0 | 0.0 | 0.00 | 0.00 | 0.56 | 91 | 1100.1 |
| 20260904003128 | 69 | 184 | 0.0 | 0.0 | 0.00 | 0.00 | 0.56 | 91 | 1100.1 |
| 20260904001638 | 69 | 184 | 0.0 | 0.0 | 0.00 | 0.00 | 0.56 | 91 | 1100.1 |
| 20260903234642 | 70 | 184 | 0.0 | 0.0 | 0.00 | 0.00 | 0.56 | 91 | 1100.1 |
| 20260903233141 | 70 | 184 | 0.0 | 0.0 | 0.00 | 0.00 | 0.56 | 91 | 1100.1 |
| 20260903231627 | 71 | 184 | 0.0 | 0.0 | 0.00 | 0.00 | 0.56 | 91 | 1100.1 |
| 20260903230130 | 71 | 184 | 0.0 | 0.0 | 0.00 | 0.00 | 0.56 | 90 | 1100.1 |
| 20260903224623 | 71 | 184 | 0.0 | 0.0 | 0.00 | 0.00 | 0.56 | 90 | 1100.1 |
| 20260903223134 | 72 | 184 | 0.0 | 0.0 | 0.00 | 0.00 | 0.56 | 90 | 1100.1 |
| 20260903221612 | 72 | 180 | 1.0 | 0.0 | 0.00 | 0.00 | 0.56 | 90 | 1100.1 |
| 20260903220112 | 72 | 180 | 0.0 | 0.0 | 0.00 | 0.00 | 0.56 | 90 | 1100.1 |
| 20260903214619 | 72 | 180 | 0.0 | 0.0 | 0.00 | 0.00 | 0.56 | 88 | 1100.1 |
| 20260903213117 | 73 | 180 | 1.0 | 0.0 | 0.00 | 0.00 | 0.43 | 87 | 1100.1 |
| 20260903210146 | 73 | 19 | 2.0 | 0.0 | 0.00 | 0.00 | 0.26 | 86 | 1100.1 |
| 20260903204614 | 73 | 26 | 4.0 | 0.0 | 0.00 | 0.00 | 0.26 | 85 | 1100.1 |
| 20260903203025 | 75 | 178 | 1.0 | 0.0 | 0.00 | 0.00 | 0.26 | 84 | 1100.1 |
| 20260903201622 | 75 | 178 | 1.0 | 0.0 | 0.00 | 0.00 | 0.26 | 84 | 1100.1 |
| 20260903200127 | 75 | 221 | 2.0 | 0.0 | 0.00 | 0.00 | 0.26 | 83 | 1100.1 |
| 20260903194637 | 75 | 209 | 3.0 | 0.0 | 0.00 | 0.00 | 0.26 | 83 | 1100.1 |
| 20260903193007 | 76 | 233 | 2.0 | 0.0 | 0.00 | 0.00 | 0.26 | 82 | 1100.1 |
| 20260903191513 | 75 | 223 | 4.0 | 0.0 | 0.00 | 0.00 | 0.26 | 82 | 1100.1 |
| 20260903190114 | 76 | 252 | 2.0 | 0.0 | 0.00 | 0.00 | 0.26 | 82 | 1100.1 |
| 20260903184603 | 75 | 252 | 2.0 | 0.0 | 0.00 | 0.00 | 0.26 | 82 | 1100.1 |
| 20260903183109 | 76 | 252 | 3.0 | 0.0 | 0.00 | 0.00 | 0.26 | 80 | 1100.1 |
| 20260903181556 | 75 | 252 | 5.0 | 0.0 | 0.00 | 0.00 | 0.26 | 83 | 1100.1 |
| 20260903180128 | 75 | 252 | 3.0 | 0.0 | 0.00 | 0.00 | 0.26 | 84 | 1100.1 |
| 20260903174626 | 76 | 252 | 2.0 | 0.0 | 0.00 | 0.00 | 0.26 | 85 | 1100.1 |
| 20260903173124 | 75 | 252 | 3.0 | 0.0 | 0.00 | 0.00 | 0.26 | 86 | 1100.1 |
| 20260903171631 | 74 | 252 | 4.0 | 0.0 | 0.00 | 0.00 | 0.26 | 86 | 1100.1 |